Time;durP1;ratioP1;P1;durP2;ratioP2;P2;SDS_P1;SDS_P2;PMS_P1;PMS_P2;Temp;Humidity;BMP_temperature;BMP_pressure;BME280_temperature;BME280_humidity;BME280_pressure;Samples;Min_cycle;Max_cycle;Signal;HPM_P1;HPM_P2
2023/08/03 00:00:55;;;;;;;6.60;1.58;;;16.50;99.90;;;;;;5034479;28;20059;-68
2023/08/03 00:03:21;;;;;;;4.70;1.73;;;16.70;99.90;;;;;;5034559;28;20465;-68
2023/08/03 00:05:48;;;;;;;4.40;1.83;;;16.60;99.90;;;;;;5034474;28;20114;-69
2023/08/03 00:08:14;;;;;;;3.20;1.90;;;16.40;99.90;;;;;;5037858;28;20053;-68
2023/08/03 00:10:41;;;;;;;3.33;1.33;;;16.60;99.90;;;;;;5038283;28;20056;-67
2023/08/03 00:13:07;;;;;;;4.18;1.95;;;16.50;99.90;;;;;;5055172;28;20439;-68
2023/08/03 00:15:33;;;;;;;2.90;1.77;;;16.50;99.90;;;;;;5038196;28;20041;-68
2023/08/03 00:18:00;;;;;;;3.80;2.05;;;16.60;99.90;;;;;;5037567;28;20076;-68
2023/08/03 00:20:26;;;;;;;4.78;1.50;;;16.50;99.90;;;;;;5038000;28;20585;-68
2023/08/03 00:22:54;;;;;;;4.40;1.80;;;16.60;99.90;;;;;;5020854;28;20099;-68
2023/08/03 00:25:20;;;;;;;3.40;1.55;;;16.60;99.90;;;;;;5037563;28;20052;-67
2023/08/03 00:27:46;;;;;;;5.15;1.70;;;16.60;99.90;;;;;;5038021;28;20099;-67
2023/08/03 00:30:13;;;;;;;4.90;2.10;;;16.40;99.90;;;;;;5038117;28;20055;-68
2023/08/03 00:32:40;;;;;;;3.35;1.63;;;16.30;99.90;;;;;;5037988;28;20220;-68
2023/08/03 00:35:07;;;;;;;2.33;1.42;;;16.30;99.90;;;;;;5037559;28;20535;-67
2023/08/03 00:37:33;;;;;;;2.13;1.70;;;16.50;99.90;;;;;;5036811;28;20476;-68
2023/08/03 00:39:59;;;;;;;2.13;1.38;;;16.50;99.90;;;;;;5035771;28;20060;-67
2023/08/03 00:42:25;;;;;;;2.40;1.23;;;16.50;99.90;;;;;;5018168;28;20449;-68
2023/08/03 00:44:52;;;;;;;3.30;1.55;;;16.40;99.90;;;;;;5017312;28;20063;-68
2023/08/03 00:47:19;;;;;;;2.42;1.38;;;16.30;99.90;;;;;;5017700;28;20119;-68
2023/08/03 00:49:45;;;;;;;3.10;1.50;;;16.50;99.90;;;;;;5017597;28;20434;-66
2023/08/03 00:52:12;;;;;;;2.80;1.50;;;16.30;99.90;;;;;;5017975;28;20049;-67
2023/08/03 00:54:39;;;;;;;2.95;1.10;;;16.50;99.90;;;;;;5017299;28;20509;-68
2023/08/03 00:57:06;;;;;;;3.67;1.42;;;16.50;99.90;;;;;;5017320;28;20116;-67
2023/08/03 00:59:32;;;;;;;3.05;1.40;;;16.60;99.90;;;;;;5017438;28;20049;-68
2023/08/03 01:01:59;;;;;;;3.08;1.50;;;16.40;99.90;;;;;;5017822;28;20053;-68
2023/08/03 01:04:26;;;;;;;2.33;1.38;;;16.50;99.90;;;;;;5017015;28;20053;-68
2023/08/03 01:06:53;;;;;;;2.97;1.25;;;16.50;99.90;;;;;;5001075;28;20050;-67
2023/08/03 01:09:19;;;;;;;2.15;1.13;;;16.50;99.90;;;;;;5017433;28;20057;-68
2023/08/03 01:11:46;;;;;;;2.67;1.10;;;16.60;99.90;;;;;;5017344;28;20041;-68
2023/08/03 01:14:14;;;;;;;2.95;1.35;;;16.50;99.90;;;;;;5017373;28;20046;-67
2023/08/03 01:16:40;;;;;;;2.00;1.10;;;16.60;99.90;;;;;;5016995;28;20378;-68
2023/08/03 01:19:08;;;;;;;1.80;1.38;;;16.60;99.90;;;;;;5033518;28;20049;-68
2023/08/03 01:21:36;;;;;;;1.90;1.20;;;16.60;99.90;;;;;;5034463;28;20045;-67
2023/08/03 01:24:02;;;;;;;1.95;1.13;;;16.60;99.90;;;;;;5017161;28;20054;-67
2023/08/03 01:26:29;;;;;;;1.77;0.98;;;16.60;99.90;;;;;;5016618;28;20053;-68
2023/08/03 01:28:56;;;;;;;1.38;1.10;;;16.50;99.90;;;;;;5034766;28;20057;-67
2023/08/03 01:31:22;;;;;;;1.60;1.20;;;16.60;99.90;;;;;;5017031;28;20053;-67
2023/08/03 01:33:49;;;;;;;3.92;1.45;;;16.60;99.90;;;;;;5000461;28;20049;-68
2023/08/03 01:36:15;;;;;;;3.08;1.40;;;16.40;99.90;;;;;;5016742;28;20054;-68
2023/08/03 01:38:43;;;;;;;2.85;1.33;;;16.60;99.90;;;;;;5026383;28;20098;-67
2023/08/03 01:41:09;;;;;;;4.57;1.63;;;16.50;99.90;;;;;;5020827;28;20375;-68
2023/08/03 01:43:36;;;;;;;3.35;1.50;;;16.70;99.90;;;;;;5035849;28;20109;-68
2023/08/03 01:46:03;;;;;;;3.03;1.70;;;16.50;99.90;;;;;;5019614;28;20053;-68
2023/08/03 01:48:29;;;;;;;2.55;1.80;;;16.70;99.90;;;;;;5020355;28;20045;-68
2023/08/03 01:50:55;;;;;;;3.72;1.95;;;16.50;99.90;;;;;;5036090;28;20071;-68
2023/08/03 01:53:22;;;;;;;3.17;2.03;;;16.40;99.90;;;;;;5032777;28;20037;-68
2023/08/03 01:55:49;;;;;;;5.57;2.85;;;16.50;99.90;;;;;;5016043;28;20060;-67
2023/08/03 01:58:17;;;;;;;5.47;2.50;;;16.50;99.90;;;;;;5016375;28;20115;-68
2023/08/03 02:00:43;;;;;;;8.57;2.45;;;16.60;99.90;;;;;;5016377;28;20057;-67
2023/08/03 02:03:09;;;;;;;3.45;2.50;;;16.70;99.90;;;;;;5001742;28;20536;-67
2023/08/03 02:05:36;;;;;;;5.30;2.80;;;16.50;99.90;;;;;;5035410;28;20056;-67
2023/08/03 02:08:04;;;;;;;3.85;2.75;;;16.60;99.90;;;;;;5019490;28;20052;-66
2023/08/03 02:10:30;;;;;;;3.75;3.20;;;16.70;99.90;;;;;;5053364;28;20037;-67
2023/08/03 02:12:56;;;;;;;5.57;3.10;;;16.40;99.90;;;;;;5019251;28;20048;-67
2023/08/03 02:15:23;;;;;;;4.55;2.92;;;16.70;99.90;;;;;;5034974;28;20373;-67
2023/08/03 02:17:49;;;;;;;4.55;3.33;;;16.50;99.90;;;;;;5018786;28;20048;-67
2023/08/03 02:20:15;;;;;;;7.00;3.47;;;16.50;99.90;;;;;;5053047;28;20053;-67
2023/08/03 02:22:42;;;;;;;6.07;2.92;;;16.50;99.90;;;;;;5035972;28;20049;-67
2023/08/03 02:25:09;;;;;;;7.85;3.28;;;16.50;99.90;;;;;;5034518;28;20389;-67
2023/08/03 02:27:35;;;;;;;5.43;3.20;;;16.60;99.90;;;;;;5035162;28;20477;-67
2023/08/03 02:30:02;;;;;;;6.47;3.30;;;16.70;99.90;;;;;;5035008;28;20541;-67
2023/08/03 02:32:29;;;;;;;7.22;2.72;;;16.80;99.90;;;;;;5018893;28;20045;-67
2023/08/03 02:34:55;;;;;;;7.97;3.20;;;16.60;99.90;;;;;;5019483;28;20478;-67
2023/08/03 02:37:22;;;;;;;5.45;2.72;;;16.70;99.90;;;;;;5015351;28;20117;-67
2023/08/03 02:39:48;;;;;;;7.28;3.40;;;16.70;99.90;;;;;;5015309;28;20056;-68
2023/08/03 02:42:14;;;;;;;8.35;2.88;;;16.90;99.90;;;;;;5015976;28;20064;-67
2023/08/03 02:44:40;;;;;;;6.45;3.30;;;16.70;99.90;;;;;;5029609;28;20118;-67
2023/08/03 02:47:07;;;;;;;12.15;3.00;;;16.90;99.90;;;;;;5018180;28;20052;-66
2023/08/03 02:49:35;;;;;;;8.50;2.83;;;16.90;99.90;;;;;;5018536;28;20057;-67
2023/08/03 02:52:01;;;;;;;6.18;2.65;;;16.90;99.90;;;;;;5018345;28;20124;-68
2023/08/03 02:54:28;;;;;;;7.15;3.13;;;16.90;99.90;;;;;;5034929;28;20353;-67
2023/08/03 02:56:54;;;;;;;9.00;3.38;;;16.80;99.90;;;;;;5034654;28;20052;-67
2023/08/03 02:59:20;;;;;;;9.55;3.65;;;16.70;99.90;;;;;;5035381;28;20049;-67
2023/08/03 03:01:46;;;;;;;13.02;3.78;;;16.90;99.90;;;;;;5035220;28;20106;-67
2023/08/03 03:04:13;;;;;;;7.88;2.72;;;16.70;99.90;;;;;;5034935;28;20424;-67
2023/08/03 03:06:42;;;;;;;11.75;3.10;;;16.90;99.90;;;;;;5018059;28;20400;-67
2023/08/03 03:09:08;;;;;;;10.88;3.05;;;17.00;99.90;;;;;;5035085;28;20337;-68
2023/08/03 03:11:35;;;;;;;11.98;3.65;;;17.00;99.90;;;;;;5034840;28;20110;-67
2023/08/03 03:14:02;;;;;;;12.07;2.88;;;17.00;99.90;;;;;;5034401;28;20049;-67
2023/08/03 03:16:29;;;;;;;9.52;3.25;;;17.00;99.90;;;;;;5034787;28;20099;-67
2023/08/03 03:18:56;;;;;;;15.55;3.00;;;16.80;99.90;;;;;;5034555;28;20048;-67
2023/08/03 03:21:22;;;;;;;14.45;3.72;;;17.00;99.90;;;;;;5018447;28;20468;-68
2023/08/03 03:23:48;;;;;;;11.55;3.38;;;17.00;99.90;;;;;;5034530;28;20049;-67
2023/08/03 03:26:15;;;;;;;7.63;2.85;;;17.00;99.90;;;;;;5034444;28;20056;-67
2023/08/03 03:28:42;;;;;;;8.52;3.00;;;16.90;99.90;;;;;;5018249;28;20056;-68
2023/08/03 03:31:08;;;;;;;11.75;3.42;;;16.90;99.90;;;;;;5018325;28;20102;-67
2023/08/03 03:33:35;;;;;;;10.20;2.45;;;16.90;99.90;;;;;;5034454;28;20055;-68
2023/08/03 03:36:03;;;;;;;9.55;2.35;;;16.60;99.90;;;;;;5033875;28;20544;-67
2023/08/03 03:38:30;;;;;;;8.85;2.40;;;16.80;99.90;;;;;;5034301;28;20111;-67
2023/08/03 03:40:57;;;;;;;9.38;2.38;;;16.60;99.90;;;;;;5034454;28;20103;-67
2023/08/03 03:43:23;;;;;;;9.80;2.95;;;16.80;99.90;;;;;;5036767;28;20053;-67
2023/08/03 03:45:49;;;;;;;9.38;2.25;;;16.70;99.90;;;;;;5037996;28;20049;-67
2023/08/03 03:48:15;;;;;;;8.73;2.22;;;16.60;99.90;;;;;;5038186;28;20056;-67
2023/08/03 03:50:43;;;;;;;9.68;2.00;;;16.60;99.90;;;;;;5038088;28;20052;-67
2023/08/03 03:53:09;;;;;;;8.98;2.40;;;16.50;99.90;;;;;;5037895;28;20048;-67
2023/08/03 03:55:35;;;;;;;11.35;2.25;;;16.60;99.90;;;;;;5001915;28;20041;-67
2023/08/03 03:58:02;;;;;;;11.20;2.40;;;16.60;99.90;;;;;;5035720;28;20371;-67
2023/08/03 04:00:29;;;;;;;8.40;2.33;;;16.40;99.90;;;;;;5035861;28;20381;-68
2023/08/03 04:02:56;;;;;;;4.63;1.83;;;16.30;99.90;;;;;;5019161;28;20058;-67
2023/08/03 04:05:23;;;;;;;8.30;2.60;;;16.50;99.90;;;;;;5037366;28;20053;-67
2023/08/03 04:07:49;;;;;;;8.48;2.22;;;16.40;99.90;;;;;;5021524;28;20068;-67
2023/08/03 04:10:15;;;;;;;7.32;2.42;;;16.50;99.90;;;;;;5038232;28;20056;-67
2023/08/03 04:12:41;;;;;;;9.00;2.92;;;16.30;99.90;;;;;;5037872;28;20049;-67
2023/08/03 04:15:09;;;;;;;8.45;2.60;;;16.30;99.90;;;;;;5021697;28;20051;-67
2023/08/03 04:17:37;;;;;;;9.80;2.63;;;16.30;99.90;;;;;;5037410;28;20099;-68
2023/08/03 04:20:06;;;;;;;9.30;2.85;;;16.30;99.90;;;;;;5037772;28;20118;-67
2023/08/03 04:22:32;;;;;;;10.23;2.80;;;16.30;99.90;;;;;;5021386;28;20528;-68
2023/08/03 04:24:58;;;;;;;12.55;3.20;;;16.30;99.90;;;;;;5037296;28;20060;-68
2023/08/03 04:27:24;;;;;;;6.88;3.03;;;16.40;99.90;;;;;;5037332;28;20064;-68
2023/08/03 04:29:51;;;;;;;8.70;3.13;;;16.50;99.90;;;;;;5037430;28;20432;-68
2023/08/03 04:32:17;;;;;;;8.75;3.10;;;16.40;99.90;;;;;;5037464;28;20060;-68
2023/08/03 04:34:45;;;;;;;8.32;3.28;;;16.40;99.90;;;;;;5021240;28;20053;-69
2023/08/03 04:37:11;;;;;;;6.53;3.25;;;16.50;99.90;;;;;;5037148;28;20056;-68
2023/08/03 04:39:39;;;;;;;8.43;3.67;;;16.70;99.90;;;;;;5037605;28;20057;-68
2023/08/03 04:42:05;;;;;;;7.72;3.25;;;16.60;99.90;;;;;;5020917;28;20049;-68
2023/08/03 04:44:31;;;;;;;9.30;3.60;;;16.80;99.90;;;;;;5037095;28;20049;-68
2023/08/03 04:46:58;;;;;;;7.57;3.42;;;16.80;99.90;;;;;;5037628;28;20052;-68
2023/08/03 04:49:25;;;;;;;9.10;3.70;;;16.70;99.90;;;;;;5037504;28;20090;-68
2023/08/03 04:51:52;;;;;;;8.98;3.33;;;16.70;99.90;;;;;;5020638;28;20110;-68
2023/08/03 04:54:20;;;;;;;9.73;3.35;;;16.90;99.90;;;;;;5035670;28;20059;-68
2023/08/03 04:56:46;;;;;;;7.18;3.35;;;16.80;99.90;;;;;;5020263;28;20041;-68
2023/08/03 04:59:13;;;;;;;11.45;3.53;;;16.80;99.90;;;;;;5037182;28;20140;-68
2023/08/03 05:01:41;;;;;;;9.02;3.50;;;16.90;99.90;;;;;;5037122;28;20048;-68
2023/08/03 05:04:09;;;;;;;9.52;3.67;;;16.90;99.90;;;;;;5037178;28;20065;-68
2023/08/03 05:06:35;;;;;;;11.45;4.40;;;17.00;99.90;;;;;;5036133;28;20053;-67
2023/08/03 05:09:01;;;;;;;14.20;4.18;;;17.10;99.90;;;;;;5032686;28;20111;-67
2023/08/03 05:11:28;;;;;;;11.43;4.30;;;17.00;99.90;;;;;;5014884;28;20053;-68
2023/08/03 05:13:54;;;;;;;10.18;3.35;;;17.40;99.90;;;;;;5043412;28;20404;-68
2023/08/03 05:16:24;;;;;;;7.80;3.55;;;17.60;99.90;;;;;;5046342;28;20354;-68
2023/08/03 05:18:51;;;;;;;7.97;3.40;;;17.90;99.90;;;;;;5044195;28;20071;-68
2023/08/03 05:21:19;;;;;;;10.43;3.80;;;18.00;99.90;;;;;;5046520;28;20518;-67
2023/08/03 05:23:46;;;;;;;8.68;3.55;;;17.80;99.90;;;;;;5042776;28;20056;-67
2023/08/03 05:26:14;;;;;;;9.13;3.90;;;17.70;99.90;;;;;;5036538;28;20063;-67
2023/08/03 05:28:41;;;;;;;7.00;3.30;;;18.20;99.90;;;;;;5036877;28;20048;-68
2023/08/03 05:31:07;;;;;;;6.47;3.42;;;18.40;99.90;;;;;;5036962;28;20342;-67
2023/08/03 05:33:34;;;;;;;6.10;3.42;;;18.60;99.90;;;;;;5033307;28;20071;-66
2023/08/03 05:36:02;;;;;;;8.98;3.95;;;18.40;99.90;;;;;;4999866;28;20056;-66
2023/08/03 05:38:29;;;;;;;8.90;3.90;;;18.50;99.90;;;;;;5033261;28;20045;-65
2023/08/03 05:40:56;;;;;;;5.95;3.92;;;18.40;99.90;;;;;;5034380;28;20053;-64
2023/08/03 05:43:26;;;;;;;8.40;3.42;;;18.30;99.90;;;;;;5016905;28;20072;-66
2023/08/03 05:46:02;;;;;;;10.20;3.95;;;18.10;99.90;;;;;;5016174;28;20057;-65
2023/08/03 05:48:30;;;;;;;6.97;3.78;;;18.20;99.90;;;;;;5000874;28;20057;-66
2023/08/03 05:50:57;;;;;;;8.65;4.80;;;18.00;99.90;;;;;;4983824;28;20056;-66
2023/08/03 05:53:28;;;;;;;10.85;4.35;;;18.20;99.90;;;;;;4985325;28;20046;-66
2023/08/03 05:55:54;;;;;;;11.75;4.70;;;18.10;99.90;;;;;;5019245;28;20071;-66
2023/08/03 05:58:20;;;;;;;12.63;4.90;;;18.20;99.90;;;;;;5035601;28;20072;-66
2023/08/03 06:00:49;;;;;;;11.48;4.60;;;18.20;99.90;;;;;;5034927;28;20052;-66
2023/08/03 06:03:17;;;;;;;11.55;4.95;;;18.00;99.90;;;;;;5035569;28;20081;-66
2023/08/03 06:05:50;;;;;;;11.43;4.70;;;17.90;99.90;;;;;;5015413;28;20049;-66
2023/08/03 06:08:28;;;;;;;9.15;4.88;;;17.90;99.90;;;;;;5034345;28;20389;-66
2023/08/03 06:10:56;;;;;;;11.07;5.15;;;17.90;99.90;;;;;;5035304;28;20052;-66
2023/08/03 06:13:31;;;;;;;10.63;5.53;;;17.80;99.90;;;;;;5034826;28;20106;-65
2023/08/03 06:15:59;;;;;;;10.20;5.03;;;17.70;99.90;;;;;;5016026;28;20054;-66
2023/08/03 06:18:30;;;;;;;11.65;4.85;;;17.70;99.90;;;;;;5015663;28;20385;-66
2023/08/03 06:20:57;;;;;;;8.45;5.28;;;17.90;99.90;;;;;;5014733;28;20096;-65
2023/08/03 06:23:26;;;;;;;8.85;5.13;;;17.90;99.90;;;;;;5014892;28;20049;-66
2023/08/03 06:25:55;;;;;;;7.50;4.82;;;18.10;99.90;;;;;;5051431;28;20045;-66
2023/08/03 06:28:23;;;;;;;10.25;5.75;;;18.30;99.90;;;;;;5034967;28;20110;-66
2023/08/03 06:30:51;;;;;;;12.35;5.35;;;18.20;99.90;;;;;;5052591;28;20045;-66
2023/08/03 06:33:21;;;;;;;7.78;5.00;;;18.30;99.90;;;;;;5052590;28;20096;-65
2023/08/03 06:35:52;;;;;;;10.65;5.43;;;18.30;99.90;;;;;;5015338;28;20513;-65
2023/08/03 06:38:22;;;;;;;11.93;5.93;;;18.50;99.90;;;;;;5033013;28;20458;-65
2023/08/03 06:40:50;;;;;;;10.32;5.60;;;18.70;99.90;;;;;;5024057;28;20475;-67
2023/08/03 06:43:16;;;;;;;12.68;5.45;;;19.00;99.90;;;;;;5015883;28;20065;-66
2023/08/03 06:45:43;;;;;;;7.53;5.10;;;19.30;99.90;;;;;;5034718;28;20111;-66
2023/08/03 06:48:10;;;;;;;12.48;4.88;;;20.40;99.90;;;;;;5035431;28;20044;-66
2023/08/03 06:50:39;;;;;;;10.93;5.13;;;21.00;99.90;;;;;;5018933;28;20045;-66
2023/08/03 06:53:05;;;;;;;11.75;4.32;;;21.30;99.90;;;;;;5034831;28;20045;-66
2023/08/03 06:55:32;;;;;;;10.38;3.95;;;22.00;99.90;;;;;;5031365;28;20057;-66
2023/08/03 06:57:58;;;;;;;8.10;3.65;;;22.10;99.90;;;;;;5034803;28;20366;-67
2023/08/03 07:00:26;;;;;;;7.40;4.03;;;22.00;99.90;;;;;;5032344;28;20038;-66
2023/08/03 07:02:52;;;;;;;9.13;3.70;;;21.90;99.90;;;;;;4999271;28;20049;-66
2023/08/03 07:05:18;;;;;;;7.50;3.58;;;21.50;99.90;;;;;;5041315;28;20054;-65
2023/08/03 07:07:45;;;;;;;8.00;3.58;;;21.30;99.90;;;;;;5015710;28;20100;-66
2023/08/03 07:10:11;;;;;;;8.30;3.35;;;21.30;99.90;;;;;;5015576;28;20053;-66
2023/08/03 07:12:42;;;;;;;8.30;3.20;;;21.40;99.90;;;;;;5015641;28;20057;-66
2023/08/03 07:15:08;;;;;;;8.45;2.80;;;21.70;99.90;;;;;;5034191;28;20059;-66
2023/08/03 07:17:35;;;;;;;6.28;3.05;;;22.10;99.90;;;;;;5034589;28;20395;-66
2023/08/03 07:20:01;;;;;;;6.47;2.92;;;22.00;99.90;;;;;;5035145;28;20053;-66
2023/08/03 07:22:29;;;;;;;10.63;3.22;;;22.00;99.90;;;;;;5019108;28;20083;-66
2023/08/03 07:24:55;;;;;;;4.80;2.45;;;21.80;99.90;;;;;;5051748;28;20311;-66
2023/08/03 07:27:21;;;;;;;8.45;2.88;;;21.30;99.90;;;;;;5035561;28;20381;-66
2023/08/03 07:29:48;;;;;;;8.90;3.60;;;21.20;99.90;;;;;;5018633;28;20045;-66
2023/08/03 07:32:14;;;;;;;7.75;2.80;;;21.10;99.90;;;;;;5035133;28;20049;-66
2023/08/03 07:34:40;;;;;;;8.43;3.10;;;20.90;99.90;;;;;;5018843;28;20060;-66
2023/08/03 07:37:07;;;;;;;7.63;2.70;;;20.70;99.90;;;;;;5035569;28;20049;-66
2023/08/03 07:39:33;;;;;;;6.78;2.38;;;20.80;99.90;;;;;;5052226;28;20053;-66
2023/08/03 07:41:59;;;;;;;7.70;3.83;;;20.70;99.90;;;;;;5019523;28;20049;-65
2023/08/03 07:44:26;;;;;;;7.13;2.60;;;20.80;99.90;;;;;;5044071;28;20045;-66
2023/08/03 07:46:52;;;;;;;6.25;2.35;;;20.80;99.90;;;;;;5015164;28;20053;-66
2023/08/03 07:49:19;;;;;;;6.75;3.03;;;21.20;99.90;;;;;;5032405;28;20125;-66
2023/08/03 07:51:47;;;;;;;7.70;2.78;;;21.40;99.90;;;;;;5015394;28;20052;-66
2023/08/03 07:54:15;;;;;;;3.95;2.20;;;21.20;99.90;;;;;;5006728;28;20044;-66
2023/08/03 07:56:42;;;;;;;4.68;2.22;;;21.10;99.90;;;;;;5052925;28;20045;-66
2023/08/03 07:59:10;;;;;;;8.27;2.30;;;21.20;99.90;;;;;;5035130;28;20048;-67
2023/08/03 08:01:37;;;;;;;4.55;2.30;;;21.50;99.90;;;;;;5053045;28;20049;-66
2023/08/03 08:04:05;;;;;;;5.78;2.30;;;21.40;99.90;;;;;;5051657;28;20520;-67
2023/08/03 08:06:32;;;;;;;4.75;2.10;;;21.20;99.90;;;;;;5021824;28;20458;-65
2023/08/03 08:09:01;;;;;;;5.68;2.03;;;21.30;99.90;;;;;;5035529;28;20475;-65
2023/08/03 08:11:28;;;;;;;4.25;1.90;;;21.20;99.90;;;;;;5032345;28;20357;-66
2023/08/03 08:13:59;;;;;;;6.18;2.00;;;21.40;99.90;;;;;;5034769;28;20068;-66
2023/08/03 08:16:26;;;;;;;7.18;1.95;;;21.50;99.90;;;;;;5018837;28;20365;-66
2023/08/03 08:18:53;;;;;;;5.68;2.05;;;21.50;99.90;;;;;;5034595;28;20045;-66
2023/08/03 08:21:19;;;;;;;3.47;1.63;;;21.20;99.90;;;;;;5052484;28;20060;-66
2023/08/03 08:23:46;;;;;;;5.00;1.70;;;21.30;99.90;;;;;;5051012;28;20060;-66
2023/08/03 08:26:17;;;;;;;4.20;1.80;;;21.40;99.90;;;;;;5052565;28;20053;-66
2023/08/03 08:28:46;;;;;;;5.07;1.75;;;21.60;99.90;;;;;;5054459;28;20110;-66
2023/08/03 08:31:13;;;;;;;5.47;1.42;;;21.70;99.90;;;;;;5055764;28;20466;-66
2023/08/03 08:33:40;;;;;;;3.05;1.52;;;21.60;99.90;;;;;;5036406;28;20049;-66
2023/08/03 08:36:06;;;;;;;4.72;1.65;;;21.60;99.90;;;;;;5018214;28;20050;-66
2023/08/03 08:38:34;;;;;;;4.45;1.55;;;21.50;99.90;;;;;;5035531;28;20111;-66
2023/08/03 08:41:01;;;;;;;4.72;1.60;;;21.50;99.90;;;;;;5035436;28;20054;-66
2023/08/03 08:43:28;;;;;;;7.82;1.63;;;21.60;99.90;;;;;;5018143;28;20085;-66
2023/08/03 08:45:54;;;;;;;2.88;1.35;;;21.80;99.90;;;;;;5018079;28;20066;-66
2023/08/03 08:48:20;;;;;;;4.40;1.83;;;22.00;99.90;;;;;;5018405;28;20433;-66
2023/08/03 08:50:49;;;;;;;5.18;1.75;;;22.10;99.90;;;;;;5017546;28;20056;-66
2023/08/03 08:53:17;;;;;;;6.10;1.80;;;22.00;99.90;;;;;;5017947;28;20050;-66
2023/08/03 08:55:46;;;;;;;6.53;1.70;;;22.10;99.90;;;;;;5017589;28;20053;-65
2023/08/03 08:58:12;;;;;;;3.30;1.67;;;22.30;99.90;;;;;;5001815;28;20049;-66
2023/08/03 09:00:43;;;;;;;7.38;2.00;;;22.30;99.90;;;;;;5017963;28;20476;-66
2023/08/03 09:03:11;;;;;;;4.95;1.65;;;22.10;99.90;;;;;;5018337;28;20158;-66
2023/08/03 09:05:39;;;;;;;5.82;1.40;;;22.10;99.90;;;;;;5001533;28;20041;-66
2023/08/03 09:08:18;;;;;;;5.05;1.50;;;22.20;99.90;;;;;;5018013;28;20481;-66
2023/08/03 09:10:52;;;;;;;5.35;1.73;;;22.20;99.90;;;;;;5000893;28;20054;-66
2023/08/03 09:13:34;;;;;;;6.07;1.45;;;22.00;99.90;;;;;;5035227;28;20045;-66
2023/08/03 09:16:01;;;;;;;3.90;1.55;;;21.70;99.90;;;;;;4998032;28;20112;-66
2023/08/03 09:18:30;;;;;;;3.83;1.92;;;21.80;99.90;;;;;;4997950;28;20068;-66
2023/08/03 09:21:10;;;;;;;6.20;1.80;;;21.80;99.90;;;;;;4965438;28;20495;-65
2023/08/03 09:23:38;;;;;;;5.25;1.80;;;22.10;99.90;;;;;;5000217;28;20058;-65
2023/08/03 09:26:05;;;;;;;4.22;1.30;;;22.20;99.90;;;;;;5017480;28;20045;-66
2023/08/03 09:28:36;;;;;;;5.30;1.45;;;22.10;99.90;;;;;;5001261;28;20473;-65
2023/08/03 09:31:03;;;;;;;4.60;1.25;;;22.20;99.90;;;;;;5017401;28;20053;-65
2023/08/03 09:33:30;;;;;;;3.22;1.23;;;22.30;99.90;;;;;;5016870;28;20061;-66
2023/08/03 09:36:11;;;;;;;3.90;1.35;;;22.40;99.90;;;;;;4997938;28;20049;-66
2023/08/03 09:38:41;;;;;;;3.92;1.38;;;22.50;99.90;;;;;;4981249;28;20470;-65
2023/08/03 09:41:12;;;;;;;3.45;1.75;;;22.60;99.90;;;;;;4997297;28;20042;-66
2023/08/03 09:43:47;;;;;;;7.07;2.00;;;22.40;99.90;;;;;;4998293;28;20053;-66
2023/08/03 09:46:14;;;;;;;6.07;1.77;;;22.20;99.90;;;;;;4997568;28;20120;-65
2023/08/03 09:48:41;;;;;;;6.15;1.85;;;22.20;99.90;;;;;;4997277;28;20111;-65
2023/08/03 09:51:09;;;;;;;5.57;1.92;;;22.20;99.90;;;;;;4997476;28;20045;-66
2023/08/03 09:53:37;;;;;;;5.10;2.03;;;22.30;99.90;;;;;;4997869;28;20046;-66
2023/08/03 09:56:05;;;;;;;5.90;1.83;;;22.20;99.90;;;;;;5017073;28;20041;-65
2023/08/03 09:58:39;;;;;;;5.93;2.03;;;22.10;99.90;;;;;;5034152;28;20068;-65
2023/08/03 10:01:12;;;;;;;4.80;1.92;;;22.20;99.90;;;;;;5017311;28;20049;-65
2023/08/03 10:03:42;;;;;;;5.00;1.90;;;22.10;99.90;;;;;;5034248;28;20127;-66
2023/08/03 10:06:17;;;;;;;3.75;1.65;;;22.10;99.90;;;;;;5017267;28;20119;-65
2023/08/03 10:08:50;;;;;;;7.03;2.22;;;22.20;99.90;;;;;;5016380;28;20355;-65
2023/08/03 10:11:19;;;;;;;9.35;2.13;;;22.30;99.90;;;;;;5016430;28;20046;-65
2023/08/03 10:13:47;;;;;;;5.40;1.92;;;22.30;99.90;;;;;;5015662;28;20060;-65
2023/08/03 10:16:15;;;;;;;5.53;2.10;;;22.40;99.90;;;;;;5016600;28;20046;-66
2023/08/03 10:18:42;;;;;;;3.20;1.40;;;22.30;99.90;;;;;;5016357;28;20045;-65
2023/08/03 10:21:10;;;;;;;4.68;2.00;;;22.40;99.90;;;;;;5016397;28;20041;-65
2023/08/03 10:23:39;;;;;;;5.20;1.70;;;22.50;99.90;;;;;;5015620;28;20429;-65
2023/08/03 10:26:09;;;;;;;6.72;2.28;;;22.50;99.90;;;;;;5014524;28;20054;-66
2023/08/03 10:28:38;;;;;;;5.70;2.03;;;22.50;99.90;;;;;;5013481;28;20053;-65
2023/08/03 10:31:06;;;;;;;6.43;1.92;;;22.50;99.90;;;;;;5014521;28;20462;-65
2023/08/03 10:33:50;;;;;;;4.65;1.95;;;22.40;99.90;;;;;;5014276;28;20159;-66
2023/08/03 10:36:28;;;;;;;5.88;1.75;;;22.00;99.90;;;;;;4996273;28;20470;-65
2023/08/03 10:39:14;;;;;;;4.03;1.50;;;21.90;99.90;;;;;;4990861;28;20111;-66
2023/08/03 10:41:45;;;;;;;2.45;1.30;;;21.80;99.90;;;;;;5016263;28;20049;-65
2023/08/03 10:44:14;;;;;;;3.53;1.90;;;21.70;99.90;;;;;;5034342;28;20447;-65
2023/08/03 10:46:50;;;;;;;5.20;2.10;;;21.70;99.90;;;;;;5016186;28;20053;-66
2023/08/03 10:49:20;;;;;;;5.25;1.90;;;22.00;99.90;;;;;;5033514;28;20103;-65
2023/08/03 10:51:52;;;;;;;3.75;1.42;;;22.00;99.90;;;;;;5016104;28;20049;-66
2023/08/03 10:54:28;;;;;;;4.57;1.80;;;22.30;99.90;;;;;;5040099;28;20049;-64
2023/08/03 10:57:04;;;;;;;4.72;1.48;;;22.50;99.90;;;;;;5053099;28;20102;-65
2023/08/03 10:59:51;;;;;;;4.53;1.67;;;22.20;99.90;;;;;;5019553;28;20124;-65
2023/08/03 11:02:28;;;;;;;5.38;1.63;;;21.70;99.90;;;;;;5035916;28;20052;-66
2023/08/03 11:05:03;;;;;;;5.75;1.70;;;21.50;99.90;;;;;;5024578;28;20045;-65
2023/08/03 11:07:34;;;;;;;5.60;1.90;;;21.40;99.90;;;;;;5035075;28;20110;-65
2023/08/03 11:10:02;;;;;;;7.22;2.10;;;21.50;99.90;;;;;;5018968;28;20057;-65
2023/08/03 11:12:29;;;;;;;6.30;2.10;;;21.60;99.90;;;;;;4996751;28;20561;-66
2023/08/03 11:15:01;;;;;;;6.50;2.00;;;21.70;99.90;;;;;;5017527;28;20060;-66
2023/08/03 11:17:30;;;;;;;6.88;2.30;;;21.90;99.90;;;;;;5034656;28;20045;-66
2023/08/03 11:19:58;;;;;;;6.60;2.35;;;21.90;99.90;;;;;;5033805;28;20072;-65
2023/08/03 11:22:25;;;;;;;8.82;2.72;;;21.80;99.90;;;;;;5053303;28;20053;-65
2023/08/03 11:24:55;;;;;;;7.10;2.28;;;21.50;99.90;;;;;;5035090;28;20057;-65
2023/08/03 11:27:22;;;;;;;11.00;3.15;;;21.60;99.90;;;;;;5035953;28;20060;-65
2023/08/03 11:29:50;;;;;;;10.20;2.78;;;21.60;99.90;;;;;;5035171;28;20053;-66
2023/08/03 11:32:28;;;;;;;9.30;2.47;;;21.50;99.90;;;;;;5035295;28;20041;-66
2023/08/03 11:35:05;;;;;;;5.80;2.55;;;21.70;99.90;;;;;;5051109;28;20508;-65
2023/08/03 11:37:36;;;;;;;7.68;2.65;;;21.60;99.90;;;;;;5046389;28;20045;-65
2023/08/03 11:40:05;;;;;;;5.78;2.08;;;21.70;99.90;;;;;;5035627;28;20389;-65
2023/08/03 11:42:33;;;;;;;6.85;2.03;;;21.70;99.90;;;;;;5019207;28;20132;-65
2023/08/03 11:45:00;;;;;;;8.25;2.13;;;21.40;99.90;;;;;;5034736;28;20067;-65
2023/08/03 11:47:46;;;;;;;6.05;2.00;;;21.40;99.90;;;;;;5035505;28;20057;-66
2023/08/03 11:50:16;;;;;;;7.25;2.25;;;21.20;99.90;;;;;;5051686;28;20060;-66
2023/08/03 11:52:43;;;;;;;6.55;1.83;;;21.40;99.90;;;;;;5034621;28;20511;-66
2023/08/03 11:55:23;;;;;;;4.68;2.00;;;21.30;99.90;;;;;;5033929;28;20041;-66
2023/08/03 11:58:08;;;;;;;5.68;2.03;;;21.40;99.90;;;;;;5035335;28;20110;-66
2023/08/03 12:00:34;;;;;;;6.45;2.03;;;21.50;99.90;;;;;;5034198;28;20107;-66
2023/08/03 12:03:01;;;;;;;3.50;1.70;;;21.70;99.90;;;;;;5036432;28;20396;-66
2023/08/03 12:05:27;;;;;;;7.82;2.15;;;21.60;99.90;;;;;;5038877;28;20059;-66
2023/08/03 12:07:54;;;;;;;4.55;2.00;;;21.60;99.90;;;;;;5039072;28;20122;-65
2023/08/03 12:10:20;;;;;;;6.68;2.35;;;21.50;99.90;;;;;;5038467;28;20060;-66
2023/08/03 12:12:46;;;;;;;7.68;2.40;;;21.60;99.90;;;;;;5038681;28;20435;-66
2023/08/03 12:15:13;;;;;;;7.03;2.42;;;21.50;99.90;;;;;;5038699;28;20412;-66
2023/08/03 12:17:39;;;;;;;8.27;3.50;;;21.60;99.90;;;;;;5038921;28;20049;-66
2023/08/03 12:20:06;;;;;;;9.07;2.90;;;21.50;99.90;;;;;;5038193;28;20371;-66
2023/08/03 12:22:34;;;;;;;5.07;1.73;;;21.60;99.90;;;;;;5022426;28;20052;-66
2023/08/03 12:25:00;;;;;;;4.90;1.85;;;21.80;99.90;;;;;;5021993;28;20076;-65
2023/08/03 12:27:28;;;;;;;5.68;2.00;;;21.70;99.90;;;;;;5038620;28;20049;-66
2023/08/03 12:29:54;;;;;;;5.57;2.08;;;21.70;99.90;;;;;;5038227;28;20060;-66
2023/08/03 12:32:20;;;;;;;3.58;2.30;;;21.70;99.90;;;;;;5038440;28;20115;-65
2023/08/03 12:34:46;;;;;;;7.70;2.63;;;21.50;99.90;;;;;;5037725;28;20050;-65
2023/08/03 12:37:14;;;;;;;5.07;2.60;;;21.40;99.90;;;;;;5038622;28;20049;-65
2023/08/03 12:39:40;;;;;;;6.68;2.33;;;21.40;99.90;;;;;;5056306;28;20059;-65
2023/08/03 12:42:06;;;;;;;7.07;2.88;;;21.60;99.90;;;;;;5039064;28;20041;-65
2023/08/03 12:44:33;;;;;;;5.78;1.98;;;21.70;99.90;;;;;;5038465;28;20045;-65
2023/08/03 12:47:00;;;;;;;6.13;2.28;;;21.60;99.90;;;;;;5038633;28;20045;-66
2023/08/03 12:49:26;;;;;;;5.63;2.08;;;21.40;99.90;;;;;;5022084;28;20427;-65